createdAt,value
2023-01-22T00:04:53.352Z,8.30
2023-01-22T00:09:58.189Z,7.43
2023-01-22T00:15:01.551Z,7.83
2023-01-22T00:20:06.044Z,8.20
2023-01-22T00:25:13.024Z,8.38
2023-01-22T00:30:17.039Z,7.70
2023-01-22T00:35:20.647Z,8.32
2023-01-22T00:40:25.405Z,8.70
2023-01-22T00:50:31.950Z,8.70
2023-01-22T00:55:36.909Z,9.03
2023-01-22T01:00:40.390Z,9.00
2023-01-22T01:05:43.942Z,9.57
2023-01-22T01:10:48.958Z,9.07
2023-01-22T01:15:59.487Z,9.47
2023-01-22T01:21:04.436Z,9.60
2023-01-22T01:26:10.532Z,9.23
2023-01-22T01:31:16.255Z,10.03
2023-01-22T01:36:40.353Z,9.60
2023-01-22T01:41:46.781Z,9.97
2023-01-22T01:46:52.854Z,10.07
2023-01-22T01:51:59.592Z,10.17
2023-01-22T01:57:09.980Z,10.17
2023-01-22T02:02:14.111Z,9.37
2023-01-22T02:07:17.596Z,9.75
2023-01-22T02:12:22.466Z,10.30
2023-01-22T02:17:25.779Z,10.07
2023-01-22T02:22:33.573Z,10.40
2023-01-22T02:27:37.155Z,10.33
2023-01-22T02:32:40.495Z,10.70
2023-01-22T02:37:45.202Z,11.07
2023-01-22T02:47:51.673Z,9.37
2023-01-22T02:52:56.554Z,10.40
2023-01-22T02:58:00.025Z,10.27
2023-01-22T03:03:07.973Z,10.63
2023-01-22T03:08:12.771Z,11.23
2023-01-22T03:13:33.747Z,11.20
2023-01-22T03:18:54.547Z,11.33
2023-01-22T03:23:59.366Z,11.00
2023-01-22T03:29:02.676Z,11.53
2023-01-22T03:34:06.114Z,10.73
2023-01-22T03:39:10.949Z,11.57
2023-01-22T03:44:14.475Z,11.77
2023-01-22T03:49:18.345Z,12.20
2023-01-22T03:54:23.115Z,12.20
2023-01-22T04:04:29.520Z,12.13
2023-01-22T04:09:34.221Z,11.37
2023-01-22T04:19:40.665Z,12.00
2023-01-22T04:24:45.522Z,11.47
2023-01-22T04:29:48.961Z,12.90
2023-01-22T04:34:52.281Z,12.47
2023-01-22T04:39:57.017Z,12.47
2023-01-22T04:50:03.492Z,12.60
2023-01-22T04:55:09.997Z,12.47
2023-01-22T05:00:14.764Z,13.30
2023-01-22T05:05:18.503Z,13.17
2023-01-22T05:10:23.678Z,13.97
2023-01-22T05:15:27.084Z,13.00
2023-01-22T05:20:30.470Z,13.10
2023-01-22T05:25:35.159Z,13.00
2023-01-22T05:35:41.681Z,11.83
2023-01-22T05:40:47.582Z,13.77
2023-01-22T05:45:51.091Z,13.00
2023-01-22T05:50:54.596Z,11.93
2023-01-22T05:56:03.091Z,12.80
2023-01-22T06:01:07.152Z,12.67
2023-01-22T06:06:13.572Z,12.98
2023-01-22T06:11:19.028Z,12.93
2023-01-22T06:16:22.555Z,12.57
2023-01-22T06:21:25.888Z,28.57
2023-01-22T06:26:30.713Z,15.90
2023-01-22T06:31:34.578Z,15.10
2023-01-22T06:36:38.094Z,15.93
2023-01-22T06:41:42.922Z,15.65
2023-01-22T06:51:49.641Z,13.80
2023-01-22T06:56:54.332Z,13.17
2023-01-22T07:01:57.729Z,13.00
2023-01-22T07:07:01.056Z,14.77
2023-01-22T07:12:05.935Z,14.02
2023-01-22T07:22:13.929Z,13.73
2023-01-22T07:27:18.712Z,12.73
2023-01-22T07:37:25.316Z,13.68
2023-01-22T07:42:30.162Z,13.80
2023-01-22T07:52:36.766Z,13.45
2023-01-22T07:57:41.492Z,13.80
2023-01-22T08:02:44.936Z,13.73
2023-01-22T08:07:48.400Z,13.68
2023-01-22T08:12:53.147Z,12.48
2023-01-22T08:17:56.601Z,14.68
2023-01-22T08:23:00.591Z,13.48
2023-01-22T08:28:06.769Z,13.45
2023-01-22T08:33:10.963Z,14.68
2023-01-22T08:38:14.446Z,13.47
2023-01-22T08:43:19.465Z,13.65
2023-01-22T08:53:43.693Z,14.52
2023-01-22T08:58:51.389Z,14.18
2023-01-22T09:03:55.241Z,13.93
2023-01-22T09:08:59.581Z,14.50
2023-01-22T09:14:04.524Z,14.32
2023-01-22T09:24:11.450Z,14.30
2023-01-22T09:29:16.301Z,13.80
2023-01-22T09:39:22.885Z,11.82
2023-01-22T09:44:35.607Z,13.07
2023-01-22T09:49:47.793Z,12.60
2023-01-22T09:54:51.122Z,13.80
2023-01-22T09:59:58.417Z,14.20
2023-01-22T10:05:05.463Z,12.50
2023-01-22T10:10:22.909Z,13.68
2023-01-22T10:15:27.833Z,15.15
2023-01-22T10:25:35.322Z,13.13
2023-01-22T10:30:48.077Z,14.27
2023-01-22T10:35:53.600Z,13.45
2023-01-22T10:40:59.901Z,13.18
2023-01-22T10:46:08.200Z,13.45
2023-01-22T10:51:16.789Z,13.52
2023-01-22T10:56:29.946Z,13.60
2023-01-22T11:01:38.090Z,13.07
2023-01-22T11:06:45.767Z,13.48
2023-01-22T11:11:56.403Z,14.85
2023-01-22T11:17:07.500Z,13.35
2023-01-22T11:22:23.356Z,13.43
2023-01-22T11:27:52.975Z,13.82
2023-01-22T11:33:07.691Z,13.93
2023-01-22T11:38:19.072Z,13.52
2023-01-22T11:43:32.614Z,13.10
2023-01-22T11:48:54.122Z,14.57
2023-01-22T11:54:08.016Z,14.63
2023-01-22T11:59:15.978Z,15.18
2023-01-22T12:04:53.791Z,15.27
2023-01-22T12:10:15.007Z,14.23
2023-01-22T12:15:34.821Z,14.85
2023-01-22T12:20:58.759Z,13.93
2023-01-22T12:26:05.705Z,14.88
2023-01-22T12:31:15.599Z,15.02
2023-01-22T12:36:24.232Z,14.25
2023-01-22T12:41:47.535Z,15.38
2023-01-22T12:47:01.240Z,15.13
2023-01-22T12:52:06.299Z,14.80
2023-01-22T12:57:24.327Z,15.98
2023-01-22T13:02:39.325Z,16.05
2023-01-22T13:12:49.746Z,15.93
2023-01-22T13:18:06.668Z,16.65
2023-01-22T13:23:15.379Z,18.23
2023-01-22T13:28:19.351Z,16.45
2023-01-22T13:33:23.432Z,16.03
2023-01-22T13:38:30.001Z,16.70
2023-01-22T13:43:36.347Z,15.82
2023-01-22T13:48:39.796Z,16.25
2023-01-22T13:53:50.521Z,17.73
2023-01-22T13:59:07.190Z,17.13
2023-01-22T14:04:27.711Z,17.20
2023-01-22T14:09:34.039Z,17.20
2023-01-22T14:14:41.408Z,18.58
2023-01-22T14:19:44.899Z,17.98
2023-01-22T14:24:52.636Z,18.25
2023-01-22T14:29:56.699Z,18.77
2023-01-22T14:35:01.833Z,18.60
2023-01-22T14:40:08.704Z,17.40
2023-01-22T14:45:14.263Z,17.70
2023-01-22T14:50:19.639Z,17.63
2023-01-22T14:55:24.900Z,17.83
2023-01-22T15:00:29.882Z,18.02
2023-01-22T15:05:35.587Z,17.52
2023-01-22T15:10:40.785Z,16.88
2023-01-22T15:20:47.371Z,17.63
2023-01-22T15:26:00.042Z,17.73
2023-01-22T15:31:08.083Z,17.83
2023-01-22T15:36:11.542Z,18.10
2023-01-22T15:41:23.764Z,16.58
2023-01-22T15:46:29.151Z,17.73
2023-01-22T15:51:32.842Z,18.55
2023-01-22T15:56:39.471Z,17.52
2023-01-22T16:01:43.186Z,18.30
2023-01-22T16:06:46.823Z,20.50
2023-01-22T16:11:52.679Z,20.60
2023-01-22T16:16:56.689Z,20.30
2023-01-22T16:22:00.339Z,19.33
2023-01-22T16:27:05.239Z,19.75
2023-01-22T16:37:11.635Z,19.85
2023-01-22T16:42:16.455Z,21.00
2023-01-22T16:47:20.479Z,22.15
2023-01-22T16:52:23.799Z,23.63
2023-01-22T16:57:28.574Z,23.50
2023-01-22T17:07:35.113Z,25.33
2023-01-22T17:12:39.847Z,24.48
2023-01-22T17:17:43.159Z,24.58
2023-01-22T17:22:46.554Z,24.88
2023-01-22T17:27:51.438Z,26.77
2023-01-22T17:37:57.993Z,27.02
2023-01-22T17:43:03.108Z,24.77
2023-01-22T17:48:07.011Z,25.63
2023-01-22T17:53:10.822Z,24.50
2023-01-22T17:58:15.679Z,23.77
2023-01-22T18:08:22.140Z,22.83
2023-01-22T18:13:27.730Z,23.23
2023-01-22T18:18:31.058Z,24.00
2023-01-22T18:23:34.554Z,23.33
2023-01-22T18:28:39.686Z,23.20
2023-01-22T18:33:45.144Z,22.13
2023-01-22T18:38:48.988Z,22.75
2023-01-22T18:43:56.390Z,21.17
2023-01-22T18:49:02.177Z,21.77
2023-01-22T18:54:06.921Z,23.25
2023-01-22T18:59:13.328Z,21.90
2023-01-22T19:04:20.496Z,20.48
2023-01-22T19:09:27.159Z,20.52
2023-01-22T19:14:31.879Z,19.05
2023-01-22T19:19:35.177Z,18.55
2023-01-22T19:24:38.624Z,16.65
2023-01-22T19:29:43.525Z,18.60
2023-01-22T19:39:50.146Z,16.95
2023-01-22T19:44:55.037Z,17.48
2023-01-22T19:55:03.184Z,19.20
2023-01-22T20:00:12.970Z,20.20
2023-01-22T20:05:18.026Z,20.55
2023-01-22T20:10:23.398Z,19.27
2023-01-22T20:15:28.485Z,18.20
2023-01-22T20:20:35.178Z,17.05
2023-01-22T20:25:39.819Z,16.73
2023-01-22T20:30:45.553Z,16.60
2023-01-22T20:35:48.940Z,16.67
2023-01-22T20:40:52.499Z,17.15
2023-01-22T20:46:03.207Z,16.05
2023-01-22T20:51:15.184Z,15.40
2023-01-22T20:56:22.751Z,14.68
2023-01-22T21:01:28.372Z,14.77
2023-01-22T21:06:34.039Z,15.40
2023-01-22T21:11:40.524Z,14.63
2023-01-22T21:16:45.916Z,15.13
2023-01-22T21:21:49.489Z,15.13
2023-01-22T21:26:52.889Z,14.77
2023-01-22T21:32:00.830Z,15.90
2023-01-22T21:37:04.297Z,15.18
2023-01-22T21:42:26.666Z,16.13
2023-01-22T21:47:31.762Z,15.32
2023-01-22T21:52:35.373Z,16.50
2023-01-22T21:57:39.284Z,15.20
2023-01-22T22:02:44.120Z,14.53
2023-01-22T22:07:47.567Z,14.93
2023-01-22T22:12:54.023Z,13.68
2023-01-22T22:17:59.475Z,15.35
2023-01-22T22:23:02.801Z,15.63
2023-01-22T22:28:06.365Z,15.40
2023-01-22T22:33:11.095Z,16.20
2023-01-22T22:43:17.872Z,15.38
2023-01-22T22:48:23.012Z,15.88
2023-01-22T22:53:26.806Z,15.85
2023-01-22T22:58:30.140Z,15.27
2023-01-22T23:03:38.736Z,14.50
2023-01-22T23:08:43.779Z,13.80
2023-01-22T23:13:49.628Z,13.80
2023-01-22T23:18:54.497Z,13.82
2023-01-22T23:29:03.442Z,15.32
2023-01-22T23:34:10.126Z,13.80
2023-01-22T23:39:15.040Z,14.43
2023-01-22T23:49:23.314Z,13.07
2023-01-22T23:59:29.862Z,13.18
